Time;durP1;ratioP1;P1;durP2;ratioP2;P2;SDS_P1;SDS_P2;PMS_P1;PMS_P2;Temp;Humidity;BMP_temperature;BMP_pressure;BME280_temperature;BME280_humidity;BME280_pressure;Samples;Min_cycle;Max_cycle;Signal;HPM_P1;HPM_P2
2023/03/02 00:01:00;;;;;;;;;;;8.40;80.00;;;;;;5073597;28;19943;-91
2023/03/02 00:03:25;;;;;;;;;;;8.40;80.00;;;;;;5073444;28;19981;-91
2023/03/02 00:05:52;;;;;;;;;;;8.40;79.80;;;;;;5073804;28;20130;-91
2023/03/02 00:08:18;;;;;;;;;;;8.40;79.60;;;;;;5068904;28;20363;-91
2023/03/02 00:10:44;;;;;;;;;;;8.30;79.50;;;;;;5073441;28;19950;-90
2023/03/02 00:13:10;;;;;;;;;;;8.30;79.70;;;;;;5070172;28;19972;-91
2023/03/02 00:15:36;;;;;;;;;;;8.30;79.80;;;;;;5073448;28;19935;-91
2023/03/02 00:18:01;;;;;;;;;;;8.30;79.60;;;;;;5073351;28;20280;-91
2023/03/02 00:20:27;;;;;;;;;;;8.30;79.60;;;;;;5073654;28;19943;-90
2023/03/02 00:22:52;;;;;;;;;;;8.30;79.70;;;;;;5054940;28;20366;-91
2023/03/02 00:25:18;;;;;;;;;;;8.20;79.80;;;;;;5053255;28;19941;-91
2023/03/02 00:27:43;;;;;;;;;;;8.20;79.80;;;;;;5053286;28;20450;-91
2023/03/02 00:30:10;;;;;;;;;;;8.20;79.90;;;;;;5053254;28;19944;-91
2023/03/02 00:32:36;;;;;;;;;;;8.20;79.90;;;;;;5053122;28;20051;-91
2023/03/02 00:35:02;;;;;;;;;;;8.30;79.90;;;;;;5053203;28;19987;-90
2023/03/02 00:37:27;;;;;;;;;;;8.30;79.50;;;;;;5073236;28;19953;-91
2023/03/02 00:39:53;;;;;;;;;;;8.30;80.20;;;;;;5073179;28;19990;-91
2023/03/02 00:42:19;;;;;;;;;;;8.20;81.20;;;;;;5073144;28;20086;-91
2023/03/02 00:44:44;;;;;;;;;;;8.20;81.60;;;;;;5073142;28;20009;-91
2023/03/02 00:47:10;;;;;;;;;;;8.20;81.60;;;;;;5073074;28;19938;-91
2023/03/02 00:49:35;;;;;;;;;;;8.10;81.60;;;;;;5073063;28;19945;-91
2023/03/02 00:52:01;;;;;;;;;;;8.10;81.20;;;;;;5069754;28;19965;-91
2023/03/02 00:54:27;;;;;;;;;;;8.10;81.00;;;;;;5052949;28;19942;-91
2023/03/02 00:56:52;;;;;;;;;;;8.10;81.30;;;;;;5052904;28;19966;-91
2023/03/02 00:59:27;;;;;;;;;;;8.10;81.50;;;;;;5052929;28;19945;-90
2023/03/02 01:01:56;;;;;;;;;;;8.10;81.30;;;;;;5052792;28;19948;-91
2023/03/02 01:04:35;;;;;;;;;;;8.10;81.90;;;;;;5065168;28;20462;-91
2023/03/02 01:07:02;;;;;;;;;;;8.00;81.90;;;;;;5072842;28;19939;-91
2023/03/02 01:09:28;;;;;;;;;;;8.00;81.70;;;;;;5063887;28;20031;-90
2023/03/02 01:11:53;;;;;;;;;;;7.90;81.60;;;;;;5059256;28;20038;-91
2023/03/02 01:14:19;;;;;;;;;;;7.90;81.70;;;;;;5052775;28;19951;-91
2023/03/02 01:16:46;;;;;;;;;;;7.90;82.00;;;;;;5052769;28;20050;-90
2023/03/02 01:19:14;;;;;;;;;;;8.00;81.40;;;;;;5052999;28;19944;-90
2023/03/02 01:21:40;;;;;;;;;;;8.00;81.20;;;;;;5052706;28;19940;-90
2023/03/02 01:24:06;;;;;;;;;;;7.90;81.30;;;;;;5052962;28;19947;-91
2023/03/02 01:26:32;;;;;;;;;;;7.90;81.30;;;;;;5052713;28;19941;-91
2023/03/02 01:28:57;;;;;;;;;;;7.90;81.60;;;;;;5052684;28;19960;-91
2023/03/02 01:31:24;;;;;;;;;;;7.80;81.90;;;;;;5054677;28;20002;-90
2023/03/02 01:33:50;;;;;;;;;;;7.80;82.00;;;;;;5072819;28;19963;-91
2023/03/02 01:36:15;;;;;;;;;;;7.70;82.10;;;;;;5074612;28;19939;-90
2023/03/02 01:38:41;;;;;;;;;;;7.70;82.40;;;;;;5076311;28;19958;-90
2023/03/02 01:41:07;;;;;;;;;;;7.70;82.60;;;;;;5076358;28;19940;-90
2023/03/02 01:43:32;;;;;;;;;;;7.70;82.70;;;;;;5076283;28;20388;-91
2023/03/02 01:46:07;;;;;;;;;;;7.70;82.80;;;;;;5076251;28;19946;-91
2023/03/02 01:48:34;;;;;;;;;;;7.60;83.00;;;;;;5076231;28;19943;-91
2023/03/02 01:51:00;;;;;;;;;;;7.70;82.90;;;;;;5076442;28;19991;-90
2023/03/02 01:53:27;;;;;;;;;;;7.60;83.30;;;;;;5076182;28;20012;-90
2023/03/02 01:55:53;;;;;;;;;;;7.40;83.90;;;;;;5059707;28;19983;-90
2023/03/02 01:58:19;;;;;;;;;;;7.40;84.40;;;;;;5056064;28;19983;-90
2023/03/02 02:00:45;;;;;;;;;;;7.10;85.10;;;;;;5055945;28;19975;-91
2023/03/02 02:03:13;;;;;;;;;;;7.10;85.40;;;;;;5056014;28;20021;-90
2023/03/02 02:05:41;;;;;;;;;;;7.00;85.40;;;;;;5055968;28;19965;-89
2023/03/02 02:08:07;;;;;;;;;;;7.10;85.10;;;;;;5055828;28;19944;-89
2023/03/02 02:10:33;;;;;;;;;;;7.10;84.70;;;;;;5055803;28;19946;-88
2023/03/02 02:12:59;;;;;;;;;;;7.20;84.60;;;;;;5055671;28;19971;-88
2023/03/02 02:15:25;;;;;;;;;;;7.10;84.80;;;;;;5055776;28;20029;-89
2023/03/02 02:17:53;;;;;;;;;;;7.10;84.80;;;;;;5055724;28;19946;-89
2023/03/02 02:20:35;;;;;;;;;;;7.10;84.80;;;;;;5065962;28;19944;-90
2023/03/02 02:23:04;;;;;;;;;;;7.10;84.80;;;;;;5075662;28;19940;-90
2023/03/02 02:25:43;;;;;;;;;;;7.20;83.80;;;;;;5075868;28;20397;-90
2023/03/02 02:28:11;;;;;;;;;;;7.30;83.40;;;;;;5075554;28;19949;-90
2023/03/02 02:30:39;;;;;;;;;;;7.30;83.20;;;;;;5075479;28;20018;-90
2023/03/02 02:33:05;;;;;;;;;;;7.30;82.80;;;;;;5075417;28;20592;-90
2023/03/02 02:35:33;;;;;;;;;;;7.40;82.30;;;;;;5075461;28;19938;-91
2023/03/02 02:38:04;;;;;;;;;;;7.30;82.40;;;;;;5075425;28;20299;-91
2023/03/02 02:40:35;;;;;;;;;;;7.30;81.90;;;;;;5075279;28;19984;-90
2023/03/02 02:43:01;;;;;;;;;;;7.40;81.20;;;;;;5075278;28;19938;-90
2023/03/02 02:45:27;;;;;;;;;;;7.30;81.00;;;;;;5074093;28;20047;-91
2023/03/02 02:47:53;;;;;;;;;;;7.30;80.50;;;;;;5055121;28;20008;-91
2023/03/02 02:50:30;;;;;;;;;;;7.30;80.70;;;;;;5055122;28;20023;-91
2023/03/02 02:53:10;;;;;;;;;;;7.40;80.90;;;;;;5054924;28;20053;-91
2023/03/02 02:55:36;;;;;;;;;;;7.40;80.90;;;;;;5054989;28;19987;-91
2023/03/02 02:58:08;;;;;;;;;;;7.30;80.90;;;;;;5055987;28;20410;-91
2023/03/02 03:00:35;;;;;;;;;;;7.40;80.50;;;;;;5054815;28;19983;-90
2023/03/02 03:03:03;;;;;;;;;;;7.50;80.30;;;;;;5054708;28;20039;-91
2023/03/02 03:05:29;;;;;;;;;;;7.50;80.00;;;;;;5054786;28;20421;-90
2023/03/02 03:08:29;;;;;;;;;;;7.40;79.40;;;;;;5054717;28;19937;-90
2023/03/02 03:10:55;;;;;;;;;;;7.50;78.80;;;;;;5054576;28;20468;-90
2023/03/02 03:13:21;;;;;;;;;;;7.60;78.30;;;;;;5055128;28;20460;-90
2023/03/02 03:15:46;;;;;;;;;;;7.60;78.10;;;;;;5054625;28;19942;-88
2023/03/02 03:18:12;;;;;;;;;;;7.70;78.00;;;;;;5054484;28;20035;-89
2023/03/02 03:20:40;;;;;;;;;;;7.70;77.70;;;;;;5054437;28;19962;-89
2023/03/02 03:23:05;;;;;;;;;;;7.70;78.00;;;;;;5054455;28;20045;-89
2023/03/02 03:25:33;;;;;;;;;;;7.70;78.00;;;;;;5054400;28;19978;-89
2023/03/02 03:27:59;;;;;;;;;;;7.70;77.70;;;;;;5054382;28;19937;-89
2023/03/02 03:30:24;;;;;;;;;;;7.70;77.70;;;;;;5054324;28;20047;-89
2023/03/02 03:32:50;;;;;;;;;;;7.80;77.60;;;;;;5054214;28;19957;-88
2023/03/02 03:35:15;;;;;;;;;;;7.80;77.50;;;;;;5054216;28;19987;-89
2023/03/02 03:37:42;;;;;;;;;;;7.80;77.60;;;;;;5055077;28;19946;-89
2023/03/02 03:40:08;;;;;;;;;;;7.80;77.80;;;;;;5074082;28;19938;-89
2023/03/02 03:42:34;;;;;;;;;;;7.90;77.60;;;;;;5074034;28;19944;-90
2023/03/02 03:45:00;;;;;;;;;;;7.90;77.60;;;;;;5074286;28;19946;-90
2023/03/02 03:47:25;;;;;;;;;;;7.90;77.20;;;;;;5073906;28;20025;-90
2023/03/02 03:49:51;;;;;;;;;;;7.90;77.10;;;;;;5073958;28;20421;-90
2023/03/02 03:52:16;;;;;;;;;;;8.00;76.50;;;;;;5073712;28;20418;-91
2023/03/02 03:54:42;;;;;;;;;;;8.10;75.70;;;;;;5073755;28;20593;-91
2023/03/02 03:57:10;;;;;;;;;;;8.10;75.80;;;;;;5073762;28;19943;-90
2023/03/02 03:59:36;;;;;;;;;;;8.20;75.30;;;;;;5073287;28;20000;-90
2023/03/02 04:02:02;;;;;;;;;;;8.10;75.20;;;;;;5073637;28;20438;-90
2023/03/02 04:04:29;;;;;;;;;;;8.10;75.10;;;;;;5073540;28;20515;-92
2023/03/02 04:06:54;;;;;;;;;;;8.10;75.40;;;;;;5067204;28;19944;-91
2023/03/02 04:09:21;;;;;;;;;;;8.10;75.80;;;;;;5053656;28;19945;-91
2023/03/02 04:11:48;;;;;;;;;;;8.00;75.10;;;;;;5053661;28;20017;-91
2023/03/02 04:14:13;;;;;;;;;;;8.00;74.90;;;;;;5050748;28;20376;-91
2023/03/02 04:16:39;;;;;;;;;;;8.10;74.50;;;;;;5053554;28;19943;-90
2023/03/02 04:19:08;;;;;;;;;;;8.10;74.40;;;;;;5053490;28;19939;-90
2023/03/02 04:21:44;;;;;;;;;;;8.10;74.60;;;;;;5053659;28;19988;-91
2023/03/02 04:24:10;;;;;;;;;;;8.00;74.90;;;;;;5053354;28;19937;-90
2023/03/02 04:26:36;;;;;;;;;;;8.00;75.30;;;;;;5053350;28;20031;-90
2023/03/02 04:29:02;;;;;;;;;;;7.90;75.50;;;;;;5053312;28;19941;-90
2023/03/02 04:31:30;;;;;;;;;;;7.90;76.70;;;;;;5053306;28;20043;-90
2023/03/02 04:33:55;;;;;;;;;;;7.70;78.00;;;;;;5053150;28;19962;-90
2023/03/02 04:36:21;;;;;;;;;;;7.60;77.50;;;;;;5054620;28;19944;-89
2023/03/02 04:38:47;;;;;;;;;;;7.60;78.70;;;;;;5073482;28;19980;-89
2023/03/02 04:41:12;;;;;;;;;;;7.50;78.10;;;;;;5073169;28;19956;-89
2023/03/02 04:43:38;;;;;;;;;;;7.60;78.10;;;;;;5071437;28;19949;-89
2023/03/02 04:46:03;;;;;;;;;;;7.60;78.10;;;;;;5073123;28;20461;-90
2023/03/02 04:48:29;;;;;;;;;;;7.60;77.90;;;;;;5073083;28;19981;-89
2023/03/02 04:50:54;;;;;;;;;;;7.60;77.90;;;;;;5073072;28;19938;-89
2023/03/02 04:53:20;;;;;;;;;;;7.70;77.80;;;;;;5072901;28;19991;-89
2023/03/02 04:55:46;;;;;;;;;;;7.70;78.10;;;;;;5073027;28;19937;-89
2023/03/02 04:58:11;;;;;;;;;;;7.70;79.00;;;;;;5073031;28;19939;-89
2023/03/02 05:00:37;;;;;;;;;;;7.60;79.40;;;;;;5065079;28;20470;-89
2023/03/02 05:03:02;;;;;;;;;;;7.50;79.60;;;;;;5071603;28;19988;-89
2023/03/02 05:05:28;;;;;;;;;;;7.60;80.00;;;;;;5072972;28;20024;-89
2023/03/02 05:07:54;;;;;;;;;;;7.50;80.20;;;;;;5058589;28;20000;-89
2023/03/02 05:10:21;;;;;;;;;;;7.50;80.70;;;;;;5053376;28;20308;-88
2023/03/02 05:13:03;;;;;;;;;;;7.50;79.90;;;;;;5056827;28;19965;-89
2023/03/02 05:15:37;;;;;;;;;;;7.60;79.40;;;;;;5048070;28;20425;-89
2023/03/02 05:18:03;;;;;;;;;;;7.70;79.00;;;;;;5056866;28;19945;-89
2023/03/02 05:20:30;;;;;;;;;;;7.80;78.60;;;;;;5056792;28;19941;-89
2023/03/02 05:22:58;;;;;;;;;;;7.90;77.90;;;;;;5056767;28;19943;-90
2023/03/02 05:25:24;;;;;;;;;;;7.90;78.10;;;;;;5055330;28;20429;-90
2023/03/02 05:27:50;;;;;;;;;;;7.90;77.90;;;;;;5056681;28;19937;-90
2023/03/02 05:30:15;;;;;;;;;;;7.90;78.00;;;;;;5056841;28;19944;-90
2023/03/02 05:32:41;;;;;;;;;;;7.90;78.00;;;;;;5056456;28;19958;-89
2023/03/02 05:35:07;;;;;;;;;;;7.90;78.20;;;;;;5056494;28;19936;-89
2023/03/02 05:37:33;;;;;;;;;;;7.90;77.90;;;;;;5067302;28;20058;-90
2023/03/02 05:39:58;;;;;;;;;;;7.90;77.80;;;;;;5076406;28;19938;-89
2023/03/02 05:42:24;;;;;;;;;;;7.90;77.50;;;;;;5076400;28;19984;-89
2023/03/02 05:44:49;;;;;;;;;;;7.90;77.50;;;;;;5076344;28;19938;-89
2023/03/02 05:47:15;;;;;;;;;;;7.90;77.70;;;;;;5076292;28;19948;-89
2023/03/02 05:49:40;;;;;;;;;;;7.90;78.20;;;;;;5076189;28;19944;-89
2023/03/02 05:52:06;;;;;;;;;;;7.80;78.30;;;;;;5076048;28;19938;-88
2023/03/02 05:54:31;;;;;;;;;;;7.80;79.10;;;;;;5076142;28;19960;-89
2023/03/02 05:56:57;;;;;;;;;;;7.80;78.80;;;;;;5076092;28;20027;-89
2023/03/02 05:59:22;;;;;;;;;;;7.80;79.10;;;;;;5076011;28;19950;-88
2023/03/02 06:01:48;;;;;;;;;;;7.80;80.00;;;;;;5075891;28;20309;-89
2023/03/02 06:04:14;;;;;;;;;;;7.70;80.80;;;;;;5055963;28;19975;-89
2023/03/02 06:06:39;;;;;;;;;;;7.60;80.90;;;;;;5059072;28;19984;-89
2023/03/02 06:09:05;;;;;;;;;;;7.50;80.30;;;;;;5076020;28;19942;-88
2023/03/02 06:11:30;;;;;;;;;;;7.60;80.10;;;;;;5066876;28;20326;-88
2023/03/02 06:13:56;;;;;;;;;;;7.70;80.10;;;;;;5051170;28;20013;-89
2023/03/02 06:16:21;;;;;;;;;;;7.70;80.10;;;;;;5049976;28;20041;-89
2023/03/02 06:18:47;;;;;;;;;;;7.70;79.70;;;;;;5055069;28;19940;-89
2023/03/02 06:21:13;;;;;;;;;;;7.80;79.30;;;;;;5055038;28;20034;-88
2023/03/02 06:23:38;;;;;;;;;;;7.70;80.10;;;;;;5051324;28;19952;-89
2023/03/02 06:26:10;;;;;;;;;;;7.70;80.70;;;;;;5042514;28;19949;-89
2023/03/02 06:28:36;;;;;;;;;;;7.70;80.30;;;;;;5047360;28;19945;-89
2023/03/02 06:31:02;;;;;;;;;;;7.80;79.60;;;;;;5050264;28;19961;-89
2023/03/02 06:33:29;;;;;;;;;;;7.90;80.00;;;;;;5050810;28;20060;-89
2023/03/02 06:35:55;;;;;;;;;;;7.90;79.60;;;;;;5062832;28;19946;-89
2023/03/02 06:38:20;;;;;;;;;;;7.90;80.00;;;;;;5052438;28;20319;-88
2023/03/02 06:40:46;;;;;;;;;;;7.90;80.80;;;;;;5048560;28;20335;-90
2023/03/02 06:43:12;;;;;;;;;;;7.90;80.50;;;;;;5043372;28;19982;-88
2023/03/02 06:45:37;;;;;;;;;;;7.90;81.20;;;;;;5047523;28;19945;-88
2023/03/02 06:48:03;;;;;;;;;;;7.90;80.90;;;;;;5051207;28;20008;-88
2023/03/02 06:50:29;;;;;;;;;;;8.00;80.60;;;;;;5051568;28;19949;-88
2023/03/02 06:52:55;;;;;;;;;;;8.10;80.90;;;;;;5050832;28;20069;-88
2023/03/02 06:55:20;;;;;;;;;;;8.20;80.00;;;;;;5054816;28;19954;-88
2023/03/02 06:57:46;;;;;;;;;;;8.20;80.00;;;;;;5054498;28;20056;-88
2023/03/02 07:00:16;;;;;;;;;;;8.30;79.90;;;;;;5045817;28;19990;-88
2023/03/02 07:02:44;;;;;;;;;;;8.30;80.20;;;;;;5073765;23;20000;-88
2023/03/02 07:05:10;;;;;;;;;;;8.40;80.70;;;;;;5133017;27;19957;-87
2023/03/02 07:07:36;;;;;;;;;;;8.40;80.20;;;;;;5123531;27;19942;-88
2023/03/02 07:10:01;;;;;;;;;;;8.40;80.30;;;;;;5125997;27;19944;-90
2023/03/02 07:12:27;;;;;;;;;;;8.40;80.40;;;;;;5124443;27;19957;-89
2023/03/02 07:14:52;;;;;;;;;;;8.50;80.80;;;;;;5121019;27;19947;-89
2023/03/02 07:17:18;;;;;;;;;;;8.60;81.00;;;;;;5122007;27;19980;-89
2023/03/02 07:19:43;;;;;;;;;;;8.70;80.40;;;;;;5123885;27;19944;-89
2023/03/02 07:22:09;;;;;;;;;;;8.80;78.60;;;;;;5121093;27;20318;-88
2023/03/02 07:24:35;;;;;;;;;;;9.00;77.90;;;;;;5129073;27;19939;-89
2023/03/02 07:27:00;;;;;;;;;;;9.20;75.40;;;;;;5121810;27;19941;-89
2023/03/02 07:29:26;;;;;;;;;;;9.40;74.30;;;;;;5127786;27;20349;-89
2023/03/02 07:31:55;;;;;;;;;;;9.40;73.40;;;;;;5128050;27;19942;-89
2023/03/02 07:34:25;;;;;;;;;;;9.50;73.50;;;;;;5119194;27;19960;-90
2023/03/02 07:36:51;;;;;;;;;;;9.50;74.20;;;;;;5127964;27;19953;-89
2023/03/02 07:39:16;;;;;;;;;;;9.60;74.30;;;;;;5132191;27;19946;-89
2023/03/02 07:41:42;;;;;;;;;;;9.90;72.60;;;;;;5132770;27;19953;-90
2023/03/02 07:44:07;;;;;;;;;;;9.90;71.00;;;;;;5125124;27;19941;-90
2023/03/02 07:46:33;;;;;;;;;;;9.90;71.50;;;;;;5124107;27;20090;-90
2023/03/02 07:48:59;;;;;;;;;;;10.00;71.70;;;;;;5111118;27;20017;-90
2023/03/02 07:51:25;;;;;;;;;;;10.00;70.90;;;;;;5131453;27;19943;-90
2023/03/02 07:53:50;;;;;;;;;;;10.10;70.80;;;;;;5116250;27;19975;-89
2023/03/02 07:56:16;;;;;;;;;;;10.40;71.00;;;;;;5105150;27;20412;-88
2023/03/02 07:58:41;;;;;;;;;;;10.40;70.30;;;;;;5110836;28;19947;-89
2023/03/02 08:01:07;;;;;;;;;;;10.60;69.90;;;;;;5114261;27;20346;-88
2023/03/02 08:03:33;;;;;;;;;;;10.70;68.70;;;;;;5110853;27;20060;-88
2023/03/02 08:06:03;;;;;;;;;;;10.70;69.30;;;;;;5104345;28;20158;-88
2023/03/02 08:08:28;;;;;;;;;;;10.70;66.70;;;;;;5108453;27;19948;-89
2023/03/02 08:10:54;;;;;;;;;;;10.80;67.20;;;;;;5113569;27;19944;-90
2023/03/02 08:13:19;;;;;;;;;;;11.00;67.40;;;;;;5113244;27;20021;-90
2023/03/02 08:15:45;;;;;;;;;;;11.10;68.20;;;;;;5119756;27;20001;-89
2023/03/02 08:18:10;;;;;;;;;;;11.30;66.20;;;;;;5104180;27;19945;-89
2023/03/02 08:20:37;;;;;;;;;;;11.30;66.20;;;;;;5100958;28;19958;-89
2023/03/02 08:23:02;;;;;;;;;;;11.30;66.80;;;;;;5101503;27;20054;-88
2023/03/02 08:25:28;;;;;;;;;;;11.40;65.60;;;;;;5105953;27;20367;-88
2023/03/02 08:27:53;;;;;;;;;;;11.30;64.80;;;;;;5112653;27;19954;-89
2023/03/02 08:30:19;;;;;;;;;;;11.30;65.40;;;;;;5110851;27;19954;-89
2023/03/02 08:32:44;;;;;;;;;;;11.20;65.60;;;;;;5110627;27;19964;-88
2023/03/02 08:35:11;;;;;;;;;;;11.10;65.40;;;;;;5111570;27;19980;-89
2023/03/02 08:37:37;;;;;;;;;;;11.00;66.00;;;;;;5108813;27;19952;-90
2023/03/02 08:40:02;;;;;;;;;;;10.90;66.10;;;;;;5111478;27;19958;-90
2023/03/02 08:42:28;;;;;;;;;;;10.90;66.30;;;;;;5094881;27;20037;-90
2023/03/02 08:44:53;;;;;;;;;;;10.90;66.20;;;;;;5114181;27;19949;-90
2023/03/02 08:47:19;;;;;;;;;;;10.80;65.30;;;;;;5112379;27;20337;-89
2023/03/02 08:49:44;;;;;;;;;;;10.90;66.60;;;;;;5103751;27;20348;-90
2023/03/02 08:52:12;;;;;;;;;;;10.90;65.60;;;;;;5108562;28;19947;-89
2023/03/02 08:54:39;;;;;;;;;;;10.80;65.40;;;;;;5108941;27;20079;-89
2023/03/02 08:57:08;;;;;;;;;;;10.90;65.20;;;;;;5108638;28;19947;-89
2023/03/02 08:59:34;;;;;;;;;;;11.00;64.70;;;;;;5102647;28;19991;-90
2023/03/02 09:01:59;;;;;;;;;;;10.90;65.00;;;;;;5113376;28;19975;-89
2023/03/02 09:04:25;;;;;;;;;;;10.90;66.60;;;;;;5089627;28;20471;-89
2023/03/02 09:06:50;;;;;;;;;;;10.90;66.10;;;;;;5084744;28;20518;-88
2023/03/02 09:09:16;;;;;;;;;;;10.90;65.70;;;;;;5075970;28;19941;-88
2023/03/02 09:11:43;;;;;;;;;;;11.00;66.70;;;;;;5072081;28;19959;-89
2023/03/02 09:14:09;;;;;;;;;;;11.00;66.70;;;;;;5079711;28;19942;-89
2023/03/02 09:16:35;;;;;;;;;;;11.00;66.70;;;;;;5080558;28;20009;-89
2023/03/02 09:19:00;;;;;;;;;;;11.00;66.10;;;;;;5083448;28;19942;-89
2023/03/02 09:21:26;;;;;;;;;;;10.90;66.50;;;;;;5086188;28;19958;-89
2023/03/02 09:23:54;;;;;;;;;;;10.80;67.60;;;;;;5076709;28;19953;-89
2023/03/02 09:26:20;;;;;;;;;;;10.70;68.10;;;;;;5083920;28;19953;-90
2023/03/02 09:28:45;;;;;;;;;;;10.60;67.90;;;;;;5087541;28;19950;-89
2023/03/02 09:31:11;;;;;;;;;;;10.50;67.50;;;;;;5087111;28;20404;-89
2023/03/02 09:33:37;;;;;;;;;;;10.40;67.60;;;;;;5068414;28;19981;-89
2023/03/02 09:36:06;;;;;;;;;;;10.40;68.70;;;;;;5094003;28;20419;-90
2023/03/02 09:38:32;;;;;;;;;;;10.40;68.80;;;;;;5087109;28;19952;-89
2023/03/02 09:40:57;;;;;;;;;;;10.40;68.60;;;;;;5068040;28;19944;-90
2023/03/02 09:43:32;;;;;;;;;;;10.30;67.90;;;;;;5078675;28;20442;-89
2023/03/02 09:46:03;;;;;;;;;;;10.40;68.50;;;;;;5089678;28;19949;-88
2023/03/02 09:48:29;;;;;;;;;;;10.30;68.40;;;;;;5084786;28;20085;-89
2023/03/02 09:51:00;;;;;;;;;;;10.30;68.60;;;;;;5092618;28;20420;-88
2023/03/02 09:53:26;;;;;;;;;;;10.40;69.10;;;;;;5088300;28;19970;-88
2023/03/02 09:55:58;;;;;;;;;;;10.40;69.10;;;;;;5090825;28;20289;-87
2023/03/02 09:58:26;;;;;;;;;;;10.40;70.20;;;;;;5090959;28;19941;-88
2023/03/02 10:00:51;;;;;;;;;;;10.40;69.60;;;;;;5101045;28;20408;-88
2023/03/02 10:03:17;;;;;;;;;;;10.40;71.20;;;;;;5044211;27;1837953;-88
2023/03/02 10:05:44;;;;;;;;;;;10.20;71.20;;;;;;5105117;27;19943;-88
2023/03/02 10:08:15;;;;;;;;;;;10.20;71.40;;;;;;5109088;28;19947;-88
2023/03/02 10:10:40;;;;;;;;;;;10.20;71.60;;;;;;5110529;27;19949;-88
2023/03/02 10:13:18;;;;;;;;;;;10.20;71.90;;;;;;5110077;28;19958;-89
2023/03/02 10:16:03;;;;;;;;;;;10.20;72.50;;;;;;5102465;27;19945;-88
2023/03/02 10:18:40;;;;;;;;;;;10.30;71.20;;;;;;5090843;28;20449;-88
2023/03/02 10:21:25;;;;;;;;;;;10.50;70.90;;;;;;5082169;28;20024;-88
2023/03/02 10:24:29;;;;;;;;;;;10.60;72.20;;;;;;5114702;27;19943;-88
2023/03/02 10:26:58;;;;;;;;;;;10.80;71.80;;;;;;5027494;28;19941;-88
2023/03/02 10:29:29;;;;;;;;;;;11.10;70.60;;;;;;5021606;28;19955;-88
2023/03/02 10:32:07;;;;;;;;;;;11.20;70.50;;;;;;5070407;27;19945;-88
2023/03/02 10:34:34;;;;;;;;;;;11.30;70.00;;;;;;5106887;27;20087;-88
2023/03/02 10:37:00;;;;;;;;;;;11.40;70.40;;;;;;5113130;28;19984;-88
2023/03/02 10:39:25;;;;;;;;;;;11.50;68.30;;;;;;5111973;27;20018;-87
2023/03/02 10:42:01;;;;;;;;;;;11.40;67.30;;;;;;5122044;27;20044;-87
2023/03/02 10:44:36;;;;;;;;;;;11.20;67.20;;;;;;5104304;27;19957;-87
2023/03/02 10:47:02;;;;;;;;;;;11.00;67.60;;;;;;5107748;27;20398;-88
2023/03/02 10:49:29;;;;;;;;;;;11.00;67.90;;;;;;5106201;28;19946;-88
2023/03/02 10:51:59;;;;;;;;;;;11.10;68.00;;;;;;5103857;28;19943;-88
2023/03/02 10:54:27;;;;;;;;;;;11.20;67.10;;;;;;5108015;28;20042;-88
2023/03/02 10:56:53;;;;;;;;;;;11.30;67.30;;;;;;5091510;28;20520;-88
2023/03/02 10:59:30;;;;;;;;;;;11.40;66.50;;;;;;5113563;27;19943;-88
2023/03/02 11:01:59;;;;;;;;;;;11.50;66.20;;;;;;5114675;27;19981;-88
2023/03/02 11:04:25;;;;;;;;;;;11.60;66.10;;;;;;5108616;27;19974;-88
2023/03/02 11:06:51;;;;;;;;;;;11.70;65.80;;;;;;5106003;28;19954;-88
2023/03/02 11:09:17;;;;;;;;;;;11.90;64.40;;;;;;5114003;28;19935;-88
2023/03/02 11:11:48;;;;;;;;;;;12.00;64.00;;;;;;5115046;28;19939;-88
2023/03/02 11:14:15;;;;;;;;;;;12.00;63.60;;;;;;5115276;28;19976;-88
2023/03/02 11:16:40;;;;;;;;;;;11.80;64.50;;;;;;5115110;28;19947;-88
2023/03/02 11:19:10;;;;;;;;;;;11.60;64.80;;;;;;5093631;28;19947;-88
2023/03/02 11:21:52;;;;;;;;;;;11.50;65.30;;;;;;5115045;28;19945;-88
2023/03/02 11:24:24;;;;;;;;;;;11.40;65.30;;;;;;5110825;28;20310;-88
2023/03/02 11:26:54;;;;;;;;;;;11.40;66.20;;;;;;5100114;28;20413;-88
2023/03/02 11:29:23;;;;;;;;;;;11.60;65.70;;;;;;5094827;28;19941;-88
2023/03/02 11:31:50;;;;;;;;;;;11.70;65.20;;;;;;5094753;28;19967;-88
2023/03/02 11:34:28;;;;;;;;;;;11.80;65.20;;;;;;5094398;28;19965;-89
2023/03/02 11:36:57;;;;;;;;;;;11.90;63.80;;;;;;5080367;28;20434;-89
2023/03/02 11:39:40;;;;;;;;;;;11.90;64.00;;;;;;5114859;28;19946;-88
2023/03/02 11:42:14;;;;;;;;;;;12.10;64.10;;;;;;5114698;28;19945;-88
2023/03/02 11:44:40;;;;;;;;;;;12.10;64.70;;;;;;5114712;28;20426;-89
2023/03/02 11:47:07;;;;;;;;;;;12.30;63.00;;;;;;5096444;28;19938;-88
2023/03/02 11:49:48;;;;;;;;;;;12.40;62.90;;;;;;5114589;28;19940;-89
2023/03/02 11:52:21;;;;;;;;;;;12.60;62.10;;;;;;5114425;28;19944;-88
2023/03/02 11:54:47;;;;;;;;;;;12.60;61.90;;;;;;5114511;28;19946;-88
2023/03/02 11:57:26;;;;;;;;;;;12.40;62.40;;;;;;5114449;28;19941;-87
2023/03/02 11:59:52;;;;;;;;;;;12.10;62.90;;;;;;5114314;28;20482;-88
2023/03/02 12:02:18;;;;;;;;;;;12.00;64.70;;;;;;5114260;28;19968;-88
2023/03/02 12:04:45;;;;;;;;;;;11.80;64.00;;;;;;5095348;28;19963;-88
2023/03/02 12:07:19;;;;;;;;;;;11.80;65.80;;;;;;5086999;28;19991;-88
2023/03/02 12:09:54;;;;;;;;;;;11.80;64.70;;;;;;5073523;28;20508;-88
2023/03/02 12:12:39;;;;;;;;;;;11.90;64.40;;;;;;5073528;28;19986;-88
2023/03/02 12:15:23;;;;;;;;;;;12.00;64.20;;;;;;5073513;28;19944;-88
2023/03/02 12:17:50;;;;;;;;;;;11.90;64.80;;;;;;5073383;28;19977;-88
2023/03/02 12:20:19;;;;;;;;;;;11.90;64.80;;;;;;5074496;28;19951;-88
2023/03/02 12:22:44;;;;;;;;;;;11.90;65.60;;;;;;5085901;28;19945;-88
2023/03/02 12:25:19;;;;;;;;;;;12.00;65.00;;;;;;5084620;28;19967;-88
2023/03/02 12:27:45;;;;;;;;;;;12.10;64.90;;;;;;5087390;28;19949;-88
2023/03/02 12:30:14;;;;;;;;;;;12.10;65.30;;;;;;5090023;28;19947;-88
2023/03/02 12:32:40;;;;;;;;;;;12.00;65.10;;;;;;5084404;28;20131;-88
2023/03/02 12:35:06;;;;;;;;;;;11.90;67.20;;;;;;5090199;28;19996;-87
2023/03/02 12:37:52;;;;;;;;;;;11.80;69.20;;;;;;5090420;28;19948;-88
2023/03/02 12:40:17;;;;;;;;;;;11.80;70.90;;;;;;5085255;28;20507;-89
2023/03/02 12:42:49;;;;;;;;;;;11.70;71.50;;;;;;5078702;28;20033;-88
2023/03/02 12:45:28;;;;;;;;;;;11.40;71.10;;;;;;5090290;28;20001;-88
2023/03/02 12:48:01;;;;;;;;;;;11.40;71.10;;;;;;5076330;28;19951;-88
2023/03/02 12:50:29;;;;;;;;;;;11.60;71.00;;;;;;5084563;28;20023;-88
2023/03/02 12:52:59;;;;;;;;;;;11.70;68.60;;;;;;5091009;28;19963;-89
2023/03/02 12:55:24;;;;;;;;;;;11.90;69.00;;;;;;5102004;28;19950;-89
2023/03/02 12:57:51;;;;;;;;;;;12.20;67.80;;;;;;5088856;28;20287;-89
2023/03/02 13:00:18;;;;;;;;;;;12.40;67.40;;;;;;5065071;28;20441;-89
2023/03/02 13:02:46;;;;;;;;;;;12.80;66.50;;;;;;5099684;28;19952;-89
2023/03/02 13:05:15;;;;;;;;;;;13.20;65.30;;;;;;5108930;28;20039;-88
2023/03/02 13:07:43;;;;;;;;;;;13.80;63.20;;;;;;5104458;28;19944;-89
2023/03/02 13:10:25;;;;;;;;;;;14.40;61.70;;;;;;5103263;28;20425;-88
2023/03/02 13:12:51;;;;;;;;;;;14.80;58.30;;;;;;5102249;28;20435;-89
2023/03/02 13:15:17;;;;;;;;;;;15.00;57.90;;;;;;5102976;28;19940;-89
2023/03/02 13:17:43;;;;;;;;;;;15.20;57.30;;;;;;5107366;28;19982;-89
2023/03/02 13:20:11;;;;;;;;;;;15.50;56.90;;;;;;5101262;28;19946;-88
2023/03/02 13:22:37;;;;;;;;;;;15.40;57.10;;;;;;5103629;28;19962;-88
2023/03/02 13:25:04;;;;;;;;;;;15.20;57.80;;;;;;5106349;28;20389;-88
2023/03/02 13:27:32;;;;;;;;;;;14.80;59.60;;;;;;5090757;28;19942;-88
2023/03/02 13:30:20;;;;;;;;;;;14.40;61.50;;;;;;5103177;28;19942;-88
2023/03/02 13:32:45;;;;;;;;;;;14.10;63.10;;;;;;5115517;28;19969;-88
2023/03/02 13:35:14;;;;;;;;;;;14.00;63.10;;;;;;5116345;27;20037;-88
2023/03/02 13:37:42;;;;;;;;;;;13.70;63.90;;;;;;5113663;28;19948;-88
2023/03/02 13:40:17;;;;;;;;;;;13.30;65.10;;;;;;5111562;27;19943;-87
2023/03/02 13:42:42;;;;;;;;;;;13.10;66.20;;;;;;5116514;27;19984;-87
2023/03/02 13:45:17;;;;;;;;;;;13.10;67.70;;;;;;5118585;27;20302;-88
2023/03/02 13:47:43;;;;;;;;;;;12.70;67.30;;;;;;5118355;27;19943;-88
2023/03/02 13:50:15;;;;;;;;;;;12.40;67.30;;;;;;5101506;28;19936;-88
2023/03/02 13:52:42;;;;;;;;;;;12.50;70.60;;;;;;5109671;28;20312;-87
2023/03/02 13:55:14;;;;;;;;;;;12.50;68.10;;;;;;5106184;27;19980;-87
2023/03/02 13:57:40;;;;;;;;;;;12.50;71.10;;;;;;5106887;27;19948;-88
2023/03/02 14:00:10;;;;;;;;;;;12.60;69.10;;;;;;5106678;28;20461;-88
2023/03/02 14:02:35;;;;;;;;;;;12.70;67.40;;;;;;5101464;28;19942;-88
2023/03/02 14:05:01;;;;;;;;;;;12.80;67.30;;;;;;5106540;28;19950;-88
2023/03/02 14:07:26;;;;;;;;;;;13.00;67.60;;;;;;5110525;27;19947;-88
2023/03/02 14:09:52;;;;;;;;;;;13.10;66.00;;;;;;5109788;27;20387;-88
2023/03/02 14:12:26;;;;;;;;;;;13.10;67.30;;;;;;5107337;28;20558;-88
2023/03/02 14:14:52;;;;;;;;;;;12.90;66.40;;;;;;5109981;27;20014;-88
2023/03/02 14:17:21;;;;;;;;;;;12.80;67.40;;;;;;5110125;27;19965;-88
2023/03/02 14:19:51;;;;;;;;;;;12.60;68.80;;;;;;5116496;27;19949;-88
2023/03/02 14:22:21;;;;;;;;;;;12.50;69.10;;;;;;5113244;27;19941;-88
2023/03/02 14:24:47;;;;;;;;;;;12.40;70.50;;;;;;5108531;28;20034;-88
2023/03/02 14:27:14;;;;;;;;;;;12.40;70.10;;;;;;5113398;27;20026;-88